sensor_id;sensor_type;location;lat;lon;timestamp;temperature;humidity
75091;DHT22;63674;48.048;8.306;2023-04-06T00:00:39;-2.80;99.90
75091;DHT22;63674;48.048;8.306;2023-04-06T00:03:08;-2.80;99.90
75091;DHT22;63674;48.048;8.306;2023-04-06T00:05:37;-2.90;99.90
75091;DHT22;63674;48.048;8.306;2023-04-06T00:08:05;-2.90;99.90
75091;DHT22;63674;48.048;8.306;2023-04-06T00:10:34;-2.90;99.90
75091;DHT22;63674;48.048;8.306;2023-04-06T00:13:03;-2.90;99.90
75091;DHT22;63674;48.048;8.306;2023-04-06T00:15:33;-3.00;99.90
75091;DHT22;63674;48.048;8.306;2023-04-06T00:18:03;-3.00;99.90
75091;DHT22;63674;48.048;8.306;2023-04-06T00:20:32;-3.00;99.90
75091;DHT22;63674;48.048;8.306;2023-04-06T00:23:00;-3.00;99.90
75091;DHT22;63674;48.048;8.306;2023-04-06T00:25:29;-3.10;99.90
75091;DHT22;63674;48.048;8.306;2023-04-06T00:27:57;-3.20;99.90
75091;DHT22;63674;48.048;8.306;2023-04-06T00:30:26;-3.20;99.90
75091;DHT22;63674;48.048;8.306;2023-04-06T00:32:54;-3.20;99.90
75091;DHT22;63674;48.048;8.306;2023-04-06T00:35:24;-3.20;99.90
75091;DHT22;63674;48.048;8.306;2023-04-06T00:37:53;-3.20;99.90
75091;DHT22;63674;48.048;8.306;2023-04-06T00:40:21;-3.20;99.90
75091;DHT22;63674;48.048;8.306;2023-04-06T00:42:50;-3.30;99.90
75091;DHT22;63674;48.048;8.306;2023-04-06T00:45:18;-2.50;99.90
75091;DHT22;63674;48.048;8.306;2023-04-06T00:47:47;-3.30;99.90
75091;DHT22;63674;48.048;8.306;2023-04-06T00:50:16;-3.30;99.90
75091;DHT22;63674;48.048;8.306;2023-04-06T00:52:46;-3.30;99.90
75091;DHT22;63674;48.048;8.306;2023-04-06T00:55:15;-3.40;99.90
75091;DHT22;63674;48.048;8.306;2023-04-06T00:57:43;-3.40;99.90
75091;DHT22;63674;48.048;8.306;2023-04-06T01:00:13;-3.40;99.90
75091;DHT22;63674;48.048;8.306;2023-04-06T01:02:42;-3.50;99.90
75091;DHT22;63674;48.048;8.306;2023-04-06T01:05:12;-3.60;99.90
75091;DHT22;63674;48.048;8.306;2023-04-06T01:08:01;-3.60;99.90
75091;DHT22;63674;48.048;8.306;2023-04-06T01:10:29;-3.60;99.90
75091;DHT22;63674;48.048;8.306;2023-04-06T01:12:58;-3.60;99.90
75091;DHT22;63674;48.048;8.306;2023-04-06T01:15:27;-3.50;99.90
75091;DHT22;63674;48.048;8.306;2023-04-06T01:17:57;-3.50;99.90
75091;DHT22;63674;48.048;8.306;2023-04-06T01:20:25;-3.60;99.90
75091;DHT22;63674;48.048;8.306;2023-04-06T01:22:55;-3.50;99.90
75091;DHT22;63674;48.048;8.306;2023-04-06T01:25:24;-3.50;99.90
75091;DHT22;63674;48.048;8.306;2023-04-06T01:27:52;-3.60;99.90
75091;DHT22;63674;48.048;8.306;2023-04-06T01:30:21;-3.60;99.90
75091;DHT22;63674;48.048;8.306;2023-04-06T01:32:49;-3.50;99.90
75091;DHT22;63674;48.048;8.306;2023-04-06T01:35:19;-3.60;99.90
75091;DHT22;63674;48.048;8.306;2023-04-06T01:37:47;-3.60;99.90
75091;DHT22;63674;48.048;8.306;2023-04-06T01:40:18;-3.60;99.90
75091;DHT22;63674;48.048;8.306;2023-04-06T01:42:46;-3.60;99.90
75091;DHT22;63674;48.048;8.306;2023-04-06T01:45:15;-3.60;99.90
75091;DHT22;63674;48.048;8.306;2023-04-06T01:47:43;-3.60;99.90
75091;DHT22;63674;48.048;8.306;2023-04-06T01:50:12;-3.70;99.90
75091;DHT22;63674;48.048;8.306;2023-04-06T01:52:41;-3.60;99.90
75091;DHT22;63674;48.048;8.306;2023-04-06T01:55:09;-3.70;99.90
75091;DHT22;63674;48.048;8.306;2023-04-06T01:57:39;-3.70;99.90
75091;DHT22;63674;48.048;8.306;2023-04-06T02:00:08;-3.70;99.90
75091;DHT22;63674;48.048;8.306;2023-04-06T02:02:38;-3.80;99.90
75091;DHT22;63674;48.048;8.306;2023-04-06T02:05:07;-3.80;99.90
75091;DHT22;63674;48.048;8.306;2023-04-06T02:07:36;-3.90;99.90
75091;DHT22;63674;48.048;8.306;2023-04-06T02:10:11;-3.90;99.90
75091;DHT22;63674;48.048;8.306;2023-04-06T02:12:41;-2.80;99.90
75091;DHT22;63674;48.048;8.306;2023-04-06T02:15:10;-3.90;99.90
75091;DHT22;63674;48.048;8.306;2023-04-06T02:17:40;-3.90;99.90
75091;DHT22;63674;48.048;8.306;2023-04-06T02:20:09;-4.00;99.90
75091;DHT22;63674;48.048;8.306;2023-04-06T02:22:38;-3.90;99.90
75091;DHT22;63674;48.048;8.306;2023-04-06T02:25:07;-3.40;99.90
75091;DHT22;63674;48.048;8.306;2023-04-06T02:27:36;-4.00;99.90
75091;DHT22;63674;48.048;8.306;2023-04-06T02:30:07;-4.00;99.90
75091;DHT22;63674;48.048;8.306;2023-04-06T02:32:36;-4.00;99.90
75091;DHT22;63674;48.048;8.306;2023-04-06T02:35:05;-4.00;99.90
75091;DHT22;63674;48.048;8.306;2023-04-06T02:37:34;-4.00;99.90
75091;DHT22;63674;48.048;8.306;2023-04-06T02:40:04;-4.00;99.90
75091;DHT22;63674;48.048;8.306;2023-04-06T02:42:33;-4.00;99.90
75091;DHT22;63674;48.048;8.306;2023-04-06T02:45:02;-4.00;99.90
75091;DHT22;63674;48.048;8.306;2023-04-06T02:47:33;-4.10;99.90
75091;DHT22;63674;48.048;8.306;2023-04-06T02:50:01;-4.10;99.90
75091;DHT22;63674;48.048;8.306;2023-04-06T02:52:30;-4.00;99.90
75091;DHT22;63674;48.048;8.306;2023-04-06T02:54:59;-4.10;99.90
75091;DHT22;63674;48.048;8.306;2023-04-06T02:57:28;-4.10;99.90
75091;DHT22;63674;48.048;8.306;2023-04-06T02:59:56;-4.10;99.90
75091;DHT22;63674;48.048;8.306;2023-04-06T03:02:25;-4.10;99.90
75091;DHT22;63674;48.048;8.306;2023-04-06T03:04:55;-4.10;99.90
75091;DHT22;63674;48.048;8.306;2023-04-06T03:07:23;-4.10;99.90
75091;DHT22;63674;48.048;8.306;2023-04-06T03:09:51;-4.20;99.90
75091;DHT22;63674;48.048;8.306;2023-04-06T03:12:20;-4.20;99.90
75091;DHT22;63674;48.048;8.306;2023-04-06T03:14:48;-4.20;99.90
75091;DHT22;63674;48.048;8.306;2023-04-06T03:17:17;-4.30;99.90
75091;DHT22;63674;48.048;8.306;2023-04-06T03:19:46;-4.30;99.90
75091;DHT22;63674;48.048;8.306;2023-04-06T03:22:16;-4.30;99.90
75091;DHT22;63674;48.048;8.306;2023-04-06T03:24:44;-4.30;99.90
75091;DHT22;63674;48.048;8.306;2023-04-06T03:27:13;-4.40;99.90
75091;DHT22;63674;48.048;8.306;2023-04-06T03:29:41;-4.40;99.90
75091;DHT22;63674;48.048;8.306;2023-04-06T03:32:10;-4.40;99.90
75091;DHT22;63674;48.048;8.306;2023-04-06T03:34:38;-4.40;99.90
75091;DHT22;63674;48.048;8.306;2023-04-06T03:37:07;-4.40;99.90
75091;DHT22;63674;48.048;8.306;2023-04-06T03:39:38;-4.40;99.90
75091;DHT22;63674;48.048;8.306;2023-04-06T03:42:07;-4.50;99.90
75091;DHT22;63674;48.048;8.306;2023-04-06T03:44:35;-4.40;99.90
75091;DHT22;63674;48.048;8.306;2023-04-06T03:47:04;-4.40;99.90
75091;DHT22;63674;48.048;8.306;2023-04-06T03:49:33;-4.40;99.90
75091;DHT22;63674;48.048;8.306;2023-04-06T03:52:02;-4.40;99.90
75091;DHT22;63674;48.048;8.306;2023-04-06T03:54:31;-4.50;99.90
75091;DHT22;63674;48.048;8.306;2023-04-06T03:57:01;-4.60;99.90
75091;DHT22;63674;48.048;8.306;2023-04-06T03:59:29;-4.60;99.90
75091;DHT22;63674;48.048;8.306;2023-04-06T04:01:58;-4.60;99.90
75091;DHT22;63674;48.048;8.306;2023-04-06T04:04:27;-4.60;99.90
75091;DHT22;63674;48.048;8.306;2023-04-06T04:06:56;-4.60;99.90
75091;DHT22;63674;48.048;8.306;2023-04-06T04:09:25;-4.60;99.90
75091;DHT22;63674;48.048;8.306;2023-04-06T04:11:55;-4.60;99.90
75091;DHT22;63674;48.048;8.306;2023-04-06T04:14:25;-4.60;99.90
75091;DHT22;63674;48.048;8.306;2023-04-06T04:16:54;-4.60;99.90
75091;DHT22;63674;48.048;8.306;2023-04-06T04:19:23;-4.70;99.90
75091;DHT22;63674;48.048;8.306;2023-04-06T04:21:51;-4.70;99.90
75091;DHT22;63674;48.048;8.306;2023-04-06T04:24:20;-4.60;99.90
75091;DHT22;63674;48.048;8.306;2023-04-06T04:26:48;-4.60;99.90
75091;DHT22;63674;48.048;8.306;2023-04-06T04:29:17;-4.80;99.90
75091;DHT22;63674;48.048;8.306;2023-04-06T04:31:49;-4.80;99.90
75091;DHT22;63674;48.048;8.306;2023-04-06T04:34:19;-4.80;99.90
75091;DHT22;63674;48.048;8.306;2023-04-06T04:36:51;-4.80;99.90
75091;DHT22;63674;48.048;8.306;2023-04-06T04:39:19;-4.80;99.90
75091;DHT22;63674;48.048;8.306;2023-04-06T04:41:48;-4.80;99.90
75091;DHT22;63674;48.048;8.306;2023-04-06T04:44:17;-4.80;99.90
75091;DHT22;63674;48.048;8.306;2023-04-06T04:46:45;-4.80;99.90
75091;DHT22;63674;48.048;8.306;2023-04-06T04:49:15;-4.80;99.90
75091;DHT22;63674;48.048;8.306;2023-04-06T04:51:44;-4.90;99.90
75091;DHT22;63674;48.048;8.306;2023-04-06T04:54:12;-4.90;99.90
75091;DHT22;63674;48.048;8.306;2023-04-06T04:56:41;-4.90;99.90
75091;DHT22;63674;48.048;8.306;2023-04-06T04:59:09;-4.90;99.90
75091;DHT22;63674;48.048;8.306;2023-04-06T05:01:38;-4.90;99.90
75091;DHT22;63674;48.048;8.306;2023-04-06T05:04:21;-4.90;99.90
75091;DHT22;63674;48.048;8.306;2023-04-06T05:06:50;-4.90;99.90
75091;DHT22;63674;48.048;8.306;2023-04-06T05:09:19;-4.80;99.90
75091;DHT22;63674;48.048;8.306;2023-04-06T05:11:47;-4.80;99.90
75091;DHT22;63674;48.048;8.306;2023-04-06T05:14:16;-4.80;99.90
75091;DHT22;63674;48.048;8.306;2023-04-06T05:16:45;-4.80;99.90
75091;DHT22;63674;48.048;8.306;2023-04-06T05:19:13;-4.70;99.90
75091;DHT22;63674;48.048;8.306;2023-04-06T05:21:44;-4.80;99.90
75091;DHT22;63674;48.048;8.306;2023-04-06T05:24:12;-4.70;99.90
75091;DHT22;63674;48.048;8.306;2023-04-06T05:26:41;-4.70;99.90
75091;DHT22;63674;48.048;8.306;2023-04-06T05:29:10;-4.60;99.90
75091;DHT22;63674;48.048;8.306;2023-04-06T05:31:40;-4.60;99.90
75091;DHT22;63674;48.048;8.306;2023-04-06T05:34:08;-4.60;99.90
75091;DHT22;63674;48.048;8.306;2023-04-06T05:36:39;-4.60;99.90
75091;DHT22;63674;48.048;8.306;2023-04-06T05:39:09;-4.50;99.90
75091;DHT22;63674;48.048;8.306;2023-04-06T05:41:39;-4.40;99.90
75091;DHT22;63674;48.048;8.306;2023-04-06T05:44:07;-4.40;99.90
75091;DHT22;63674;48.048;8.306;2023-04-06T05:46:36;-4.40;99.90
75091;DHT22;63674;48.048;8.306;2023-04-06T05:49:04;-4.40;99.90
75091;DHT22;63674;48.048;8.306;2023-04-06T05:51:33;-4.40;99.90
75091;DHT22;63674;48.048;8.306;2023-04-06T05:54:01;-4.30;99.90
75091;DHT22;63674;48.048;8.306;2023-04-06T05:56:31;-4.30;99.90
75091;DHT22;63674;48.048;8.306;2023-04-06T05:59:00;-4.00;99.90
75091;DHT22;63674;48.048;8.306;2023-04-06T06:01:28;-4.40;99.90
75091;DHT22;63674;48.048;8.306;2023-04-06T06:03:57;-3.40;99.90
75091;DHT22;63674;48.048;8.306;2023-04-06T06:06:27;-4.40;99.90
75091;DHT22;63674;48.048;8.306;2023-04-06T06:08:56;-4.30;99.90
75091;DHT22;63674;48.048;8.306;2023-04-06T06:11:27;-4.20;99.90
75091;DHT22;63674;48.048;8.306;2023-04-06T06:14:18;-4.20;99.90
75091;DHT22;63674;48.048;8.306;2023-04-06T06:16:46;-4.20;99.90
75091;DHT22;63674;48.048;8.306;2023-04-06T06:19:16;-4.20;99.90
75091;DHT22;63674;48.048;8.306;2023-04-06T06:21:44;-4.20;99.90
75091;DHT22;63674;48.048;8.306;2023-04-06T06:24:13;-4.20;99.90
75091;DHT22;63674;48.048;8.306;2023-04-06T06:26:42;-4.00;99.90
75091;DHT22;63674;48.048;8.306;2023-04-06T06:29:10;-4.00;99.90
75091;DHT22;63674;48.048;8.306;2023-04-06T06:31:40;-3.90;99.90
75091;DHT22;63674;48.048;8.306;2023-04-06T06:34:09;-3.80;99.90
75091;DHT22;63674;48.048;8.306;2023-04-06T06:36:40;-3.70;99.90
75091;DHT22;63674;48.048;8.306;2023-04-06T06:39:08;-3.70;99.90
75091;DHT22;63674;48.048;8.306;2023-04-06T06:41:37;-3.70;99.90
75091;DHT22;63674;48.048;8.306;2023-04-06T06:44:06;-3.60;99.90
75091;DHT22;63674;48.048;8.306;2023-04-06T06:46:35;-3.60;99.90
75091;DHT22;63674;48.048;8.306;2023-04-06T06:49:05;-3.60;99.90
75091;DHT22;63674;48.048;8.306;2023-04-06T06:51:34;-3.50;99.90
75091;DHT22;63674;48.048;8.306;2023-04-06T06:54:02;-3.40;99.90
75091;DHT22;63674;48.048;8.306;2023-04-06T06:56:32;-3.40;99.90
75091;DHT22;63674;48.048;8.306;2023-04-06T06:59:02;-3.40;99.90
75091;DHT22;63674;48.048;8.306;2023-04-06T07:01:32;-3.30;99.90
75091;DHT22;63674;48.048;8.306;2023-04-06T07:04:01;-3.20;99.90
75091;DHT22;63674;48.048;8.306;2023-04-06T07:06:31;-3.10;99.90
75091;DHT22;63674;48.048;8.306;2023-04-06T07:09:00;-2.90;99.90
75091;DHT22;63674;48.048;8.306;2023-04-06T07:11:30;-2.80;99.90
75091;DHT22;63674;48.048;8.306;2023-04-06T07:13:58;-2.80;99.90
75091;DHT22;63674;48.048;8.306;2023-04-06T07:16:26;-2.80;99.90
75091;DHT22;63674;48.048;8.306;2023-04-06T07:18:55;-2.60;99.90
75091;DHT22;63674;48.048;8.306;2023-04-06T07:21:24;-2.50;99.90
75091;DHT22;63674;48.048;8.306;2023-04-06T07:23:54;-2.60;99.90
75091;DHT22;63674;48.048;8.306;2023-04-06T07:26:24;-2.50;99.90
75091;DHT22;63674;48.048;8.306;2023-04-06T07:28:52;-2.30;99.90
75091;DHT22;63674;48.048;8.306;2023-04-06T07:31:21;-2.00;99.90
75091;DHT22;63674;48.048;8.306;2023-04-06T07:33:49;-1.80;99.90
75091;DHT22;63674;48.048;8.306;2023-04-06T07:36:18;-1.00;99.90
75091;DHT22;63674;48.048;8.306;2023-04-06T07:38:48;-0.10;99.90
75091;DHT22;63674;48.048;8.306;2023-04-06T07:41:18;-0.60;99.90
75091;DHT22;63674;48.048;8.306;2023-04-06T07:43:46;-0.20;99.90
75091;DHT22;63674;48.048;8.306;2023-04-06T07:48:51;0.30;99.90
75091;DHT22;63674;48.048;8.306;2023-04-06T07:51:19;0.50;99.90
75091;DHT22;63674;48.048;8.306;2023-04-06T07:53:48;0.60;99.90
75091;DHT22;63674;48.048;8.306;2023-04-06T07:56:20;0.70;99.90
75091;DHT22;63674;48.048;8.306;2023-04-06T07:58:49;0.90;99.90
75091;DHT22;63674;48.048;8.306;2023-04-06T08:01:20;1.20;99.90
75091;DHT22;63674;48.048;8.306;2023-04-06T08:03:48;1.50;99.90
75091;DHT22;63674;48.048;8.306;2023-04-06T08:06:17;2.20;99.90
75091;DHT22;63674;48.048;8.306;2023-04-06T08:08:46;2.30;99.90
75091;DHT22;63674;48.048;8.306;2023-04-06T08:11:14;2.70;99.90
75091;DHT22;63674;48.048;8.306;2023-04-06T08:13:44;3.30;99.90
75091;DHT22;63674;48.048;8.306;2023-04-06T08:16:13;3.70;93.30
75091;DHT22;63674;48.048;8.306;2023-04-06T08:18:42;4.00;92.20
75091;DHT22;63674;48.048;8.306;2023-04-06T08:21:10;3.90;90.30
75091;DHT22;63674;48.048;8.306;2023-04-06T08:23:39;4.40;83.30
75091;DHT22;63674;48.048;8.306;2023-04-06T08:26:07;4.90;95.30
75091;DHT22;63674;48.048;8.306;2023-04-06T08:28:36;5.60;81.40
75091;DHT22;63674;48.048;8.306;2023-04-06T08:31:06;6.30;74.50
75091;DHT22;63674;48.048;8.306;2023-04-06T08:33:35;6.60;68.40
75091;DHT22;63674;48.048;8.306;2023-04-06T08:36:10;7.00;65.50
75091;DHT22;63674;48.048;8.306;2023-04-06T08:38:39;8.00;67.00
75091;DHT22;63674;48.048;8.306;2023-04-06T08:41:10;8.20;65.70
75091;DHT22;63674;48.048;8.306;2023-04-06T08:43:43;8.50;56.80
75091;DHT22;63674;48.048;8.306;2023-04-06T08:46:14;8.70;57.40
75091;DHT22;63674;48.048;8.306;2023-04-06T08:48:43;9.20;56.10
75091;DHT22;63674;48.048;8.306;2023-04-06T08:51:12;9.70;59.00
75091;DHT22;63674;48.048;8.306;2023-04-06T08:53:41;9.90;54.10
75091;DHT22;63674;48.048;8.306;2023-04-06T08:56:09;9.80;52.50
75091;DHT22;63674;48.048;8.306;2023-04-06T08:58:39;9.70;52.50
75091;DHT22;63674;48.048;8.306;2023-04-06T09:01:11;9.70;52.80
75091;DHT22;63674;48.048;8.306;2023-04-06T09:03:42;10.30;50.80
75091;DHT22;63674;48.048;8.306;2023-04-06T09:06:13;10.30;47.70
75091;DHT22;63674;48.048;8.306;2023-04-06T09:08:42;10.00;52.10
75091;DHT22;63674;48.048;8.306;2023-04-06T09:11:10;10.30;51.90
75091;DHT22;63674;48.048;8.306;2023-04-06T09:13:46;10.20;47.30
75091;DHT22;63674;48.048;8.306;2023-04-06T09:16:17;9.70;43.70
75091;DHT22;63674;48.048;8.306;2023-04-06T09:18:47;9.90;47.40
75091;DHT22;63674;48.048;8.306;2023-04-06T09:21:17;9.90;48.00
75091;DHT22;63674;48.048;8.306;2023-04-06T09:23:58;10.20;46.00
75091;DHT22;63674;48.048;8.306;2023-04-06T09:26:28;10.50;46.70
75091;DHT22;63674;48.048;8.306;2023-04-06T09:28:57;10.60;47.20
75091;DHT22;63674;48.048;8.306;2023-04-06T09:31:29;10.40;47.80
75091;DHT22;63674;48.048;8.306;2023-04-06T09:34:01;10.40;47.00
75091;DHT22;63674;48.048;8.306;2023-04-06T09:36:31;10.30;45.70
75091;DHT22;63674;48.048;8.306;2023-04-06T09:39:02;10.20;46.20
75091;DHT22;63674;48.048;8.306;2023-04-06T09:41:32;9.80;46.80
75091;DHT22;63674;48.048;8.306;2023-04-06T09:44:03;9.70;47.10
75091;DHT22;63674;48.048;8.306;2023-04-06T09:46:34;9.80;48.20
75091;DHT22;63674;48.048;8.306;2023-04-06T09:49:27;9.80;45.10
75091;DHT22;63674;48.048;8.306;2023-04-06T09:52:00;10.20;44.20
75091;DHT22;63674;48.048;8.306;2023-04-06T09:54:31;10.20;44.00
75091;DHT22;63674;48.048;8.306;2023-04-06T09:57:04;10.20;42.70
75091;DHT22;63674;48.048;8.306;2023-04-06T09:59:47;10.20;42.40
75091;DHT22;63674;48.048;8.306;2023-04-06T10:02:25;10.30;46.00
75091;DHT22;63674;48.048;8.306;2023-04-06T10:05:05;10.30;44.90
75091;DHT22;63674;48.048;8.306;2023-04-06T10:07:36;10.20;46.80
75091;DHT22;63674;48.048;8.306;2023-04-06T10:10:25;10.00;47.40
75091;DHT22;63674;48.048;8.306;2023-04-06T10:12:54;10.10;44.20
75091;DHT22;63674;48.048;8.306;2023-04-06T10:15:23;9.70;43.60
75091;DHT22;63674;48.048;8.306;2023-04-06T10:17:52;9.80;48.50
75091;DHT22;63674;48.048;8.306;2023-04-06T10:20:23;9.90;45.50
75091;DHT22;63674;48.048;8.306;2023-04-06T10:23:01;9.90;46.50
75091;DHT22;63674;48.048;8.306;2023-04-06T10:25:33;10.10;48.20
75091;DHT22;63674;48.048;8.306;2023-04-06T10:28:06;10.20;44.90
75091;DHT22;63674;48.048;8.306;2023-04-06T10:30:42;10.30;44.90
75091;DHT22;63674;48.048;8.306;2023-04-06T10:33:14;10.20;46.30
75091;DHT22;63674;48.048;8.306;2023-04-06T10:35:45;10.00;43.70
75091;DHT22;63674;48.048;8.306;2023-04-06T10:38:14;10.10;42.40
75091;DHT22;63674;48.048;8.306;2023-04-06T10:40:47;9.70;43.10
75091;DHT22;63674;48.048;8.306;2023-04-06T10:43:19;9.90;47.10
75091;DHT22;63674;48.048;8.306;2023-04-06T10:45:55;10.00;45.30
75091;DHT22;63674;48.048;8.306;2023-04-06T10:48:37;10.20;43.90
75091;DHT22;63674;48.048;8.306;2023-04-06T10:51:10;10.30;45.20
75091;DHT22;63674;48.048;8.306;2023-04-06T10:53:41;10.60;45.70
75091;DHT22;63674;48.048;8.306;2023-04-06T10:56:12;10.80;43.50
75091;DHT22;63674;48.048;8.306;2023-04-06T10:58:44;10.70;44.70
75091;DHT22;63674;48.048;8.306;2023-04-06T11:01:15;10.90;45.40
75091;DHT22;63674;48.048;8.306;2023-04-06T11:03:45;11.10;42.80
75091;DHT22;63674;48.048;8.306;2023-04-06T11:06:22;10.90;43.80
75091;DHT22;63674;48.048;8.306;2023-04-06T11:08:54;10.90;44.90
75091;DHT22;63674;48.048;8.306;2023-04-06T11:11:25;10.80;43.00
75091;DHT22;63674;48.048;8.306;2023-04-06T11:13:55;10.60;40.00
75091;DHT22;63674;48.048;8.306;2023-04-06T11:16:26;10.60;44.30
75091;DHT22;63674;48.048;8.306;2023-04-06T11:18:57;10.50;43.10
75091;DHT22;63674;48.048;8.306;2023-04-06T11:21:36;10.70;46.20
75091;DHT22;63674;48.048;8.306;2023-04-06T11:24:07;10.60;43.10
75091;DHT22;63674;48.048;8.306;2023-04-06T11:26:38;10.70;46.80
75091;DHT22;63674;48.048;8.306;2023-04-06T11:29:08;10.80;47.00
75091;DHT22;63674;48.048;8.306;2023-04-06T11:31:45;10.90;46.90
75091;DHT22;63674;48.048;8.306;2023-04-06T11:34:17;11.00;46.10
75091;DHT22;63674;48.048;8.306;2023-04-06T11:36:49;11.00;44.10
75091;DHT22;63674;48.048;8.306;2023-04-06T11:39:25;11.00;42.90
75091;DHT22;63674;48.048;8.306;2023-04-06T11:41:57;11.30;46.50
75091;DHT22;63674;48.048;8.306;2023-04-06T11:44:29;11.30;42.80
75091;DHT22;63674;48.048;8.306;2023-04-06T11:47:00;11.40;42.30
75091;DHT22;63674;48.048;8.306;2023-04-06T11:49:30;11.40;42.30
75091;DHT22;63674;48.048;8.306;2023-04-06T11:52:01;11.00;41.90
75091;DHT22;63674;48.048;8.306;2023-04-06T11:54:31;11.20;42.40
75091;DHT22;63674;48.048;8.306;2023-04-06T11:57:01;11.20;43.10
75091;DHT22;63674;48.048;8.306;2023-04-06T11:59:30;11.10;41.10
75091;DHT22;63674;48.048;8.306;2023-04-06T12:01:59;11.10;45.10
75091;DHT22;63674;48.048;8.306;2023-04-06T12:04:29;11.00;41.10
75091;DHT22;63674;48.048;8.306;2023-04-06T12:06:59;10.80;40.30
75091;DHT22;63674;48.048;8.306;2023-04-06T12:09:28;10.80;42.00
75091;DHT22;63674;48.048;8.306;2023-04-06T12:11:57;10.90;44.00
75091;DHT22;63674;48.048;8.306;2023-04-06T12:14:25;10.90;41.60
75091;DHT22;63674;48.048;8.306;2023-04-06T12:16:54;10.90;41.60
75091;DHT22;63674;48.048;8.306;2023-04-06T12:19:23;11.00;41.10
75091;DHT22;63674;48.048;8.306;2023-04-06T12:21:52;11.00;41.70
75091;DHT22;63674;48.048;8.306;2023-04-06T12:24:23;11.10;43.80
75091;DHT22;63674;48.048;8.306;2023-04-06T12:26:51;11.30;42.20
75091;DHT22;63674;48.048;8.306;2023-04-06T12:29:35;11.20;40.70
75091;DHT22;63674;48.048;8.306;2023-04-06T12:32:04;11.10;40.70
75091;DHT22;63674;48.048;8.306;2023-04-06T12:34:33;11.00;42.20
75091;DHT22;63674;48.048;8.306;2023-04-06T12:37:01;11.00;40.70
75091;DHT22;63674;48.048;8.306;2023-04-06T12:39:31;11.00;40.80
75091;DHT22;63674;48.048;8.306;2023-04-06T12:42:00;11.00;41.80
75091;DHT22;63674;48.048;8.306;2023-04-06T12:44:29;11.00;41.10
75091;DHT22;63674;48.048;8.306;2023-04-06T12:46:58;11.00;41.00
75091;DHT22;63674;48.048;8.306;2023-04-06T12:49:26;11.00;42.70
75091;DHT22;63674;48.048;8.306;2023-04-06T12:51:57;11.20;42.40
75091;DHT22;63674;48.048;8.306;2023-04-06T12:54:27;11.10;39.70
75091;DHT22;63674;48.048;8.306;2023-04-06T12:56:57;11.00;41.90
75091;DHT22;63674;48.048;8.306;2023-04-06T12:59:25;11.00;41.60
75091;DHT22;63674;48.048;8.306;2023-04-06T13:01:58;11.00;42.90
75091;DHT22;63674;48.048;8.306;2023-04-06T13:04:27;10.90;41.50
75091;DHT22;63674;48.048;8.306;2023-04-06T13:06:55;10.80;41.20
75091;DHT22;63674;48.048;8.306;2023-04-06T13:09:24;10.70;44.20
75091;DHT22;63674;48.048;8.306;2023-04-06T13:11:52;10.70;43.40
75091;DHT22;63674;48.048;8.306;2023-04-06T13:14:22;10.80;42.00
75091;DHT22;63674;48.048;8.306;2023-04-06T13:16:51;10.80;42.10
75091;DHT22;63674;48.048;8.306;2023-04-06T13:19:20;11.00;42.90
75091;DHT22;63674;48.048;8.306;2023-04-06T13:21:49;10.90;41.80
75091;DHT22;63674;48.048;8.306;2023-04-06T13:24:18;10.80;42.70
75091;DHT22;63674;48.048;8.306;2023-04-06T13:26:48;10.70;40.80
75091;DHT22;63674;48.048;8.306;2023-04-06T13:29:17;10.70;42.40
75091;DHT22;63674;48.048;8.306;2023-04-06T13:31:47;10.80;43.40
75091;DHT22;63674;48.048;8.306;2023-04-06T13:34:16;10.70;39.90
75091;DHT22;63674;48.048;8.306;2023-04-06T13:36:45;10.80;40.50
75091;DHT22;63674;48.048;8.306;2023-04-06T13:39:13;10.80;44.30
75091;DHT22;63674;48.048;8.306;2023-04-06T13:41:42;10.80;42.60
75091;DHT22;63674;48.048;8.306;2023-04-06T13:44:10;11.00;41.30
75091;DHT22;63674;48.048;8.306;2023-04-06T13:46:39;10.90;39.70
75091;DHT22;63674;48.048;8.306;2023-04-06T13:49:09;10.60;41.10
75091;DHT22;63674;48.048;8.306;2023-04-06T13:51:37;10.60;40.50
75091;DHT22;63674;48.048;8.306;2023-04-06T13:54:06;10.40;40.40
75091;DHT22;63674;48.048;8.306;2023-04-06T13:56:34;10.30;38.60
75091;DHT22;63674;48.048;8.306;2023-04-06T13:59:03;10.30;41.40
75091;DHT22;63674;48.048;8.306;2023-04-06T14:01:31;10.30;39.20
75091;DHT22;63674;48.048;8.306;2023-04-06T14:04:00;10.30;39.30
75091;DHT22;63674;48.048;8.306;2023-04-06T14:06:30;10.30;38.40
75091;DHT22;63674;48.048;8.306;2023-04-06T14:08:59;10.30;37.70
75091;DHT22;63674;48.048;8.306;2023-04-06T14:11:28;10.30;37.00
75091;DHT22;63674;48.048;8.306;2023-04-06T14:13:56;10.20;37.50
75091;DHT22;63674;48.048;8.306;2023-04-06T14:16:25;10.10;38.70
75091;DHT22;63674;48.048;8.306;2023-04-06T14:18:54;10.30;37.80
75091;DHT22;63674;48.048;8.306;2023-04-06T14:21:24;10.30;37.50
75091;DHT22;63674;48.048;8.306;2023-04-06T14:23:54;10.00;37.70
75091;DHT22;63674;48.048;8.306;2023-04-06T14:26:25;10.00;39.50
75091;DHT22;63674;48.048;8.306;2023-04-06T14:28:54;10.00;39.40
75091;DHT22;63674;48.048;8.306;2023-04-06T14:31:23;9.90;41.30
75091;DHT22;63674;48.048;8.306;2023-04-06T14:33:52;9.90;38.20
75091;DHT22;63674;48.048;8.306;2023-04-06T14:36:20;9.90;38.80
75091;DHT22;63674;48.048;8.306;2023-04-06T14:38:49;9.70;39.80
75091;DHT22;63674;48.048;8.306;2023-04-06T14:41:24;9.60;41.10
75091;DHT22;63674;48.048;8.306;2023-04-06T14:44:11;9.60;39.10
75091;DHT22;63674;48.048;8.306;2023-04-06T14:46:40;9.70;39.80
75091;DHT22;63674;48.048;8.306;2023-04-06T14:49:08;9.70;39.90
75091;DHT22;63674;48.048;8.306;2023-04-06T14:51:37;9.60;39.50
75091;DHT22;63674;48.048;8.306;2023-04-06T14:54:07;9.50;40.40
75091;DHT22;63674;48.048;8.306;2023-04-06T14:56:37;9.50;42.20
75091;DHT22;63674;48.048;8.306;2023-04-06T14:59:05;9.50;39.50
75091;DHT22;63674;48.048;8.306;2023-04-06T15:01:34;9.40;39.70
75091;DHT22;63674;48.048;8.306;2023-04-06T15:04:04;9.30;40.80
75091;DHT22;63674;48.048;8.306;2023-04-06T15:06:33;9.40;42.40
75091;DHT22;63674;48.048;8.306;2023-04-06T15:09:02;9.30;40.60
75091;DHT22;63674;48.048;8.306;2023-04-06T15:11:30;9.30;40.60
75091;DHT22;63674;48.048;8.306;2023-04-06T15:14:00;9.30;41.40
75091;DHT22;63674;48.048;8.306;2023-04-06T15:16:29;9.30;42.10
75091;DHT22;63674;48.048;8.306;2023-04-06T15:18:59;9.30;42.50
75091;DHT22;63674;48.048;8.306;2023-04-06T15:21:28;9.30;43.30
75091;DHT22;63674;48.048;8.306;2023-04-06T15:23:58;9.20;44.50
75091;DHT22;63674;48.048;8.306;2023-04-06T15:26:26;9.20;43.80
75091;DHT22;63674;48.048;8.306;2023-04-06T15:28:55;9.00;44.20
75091;DHT22;63674;48.048;8.306;2023-04-06T15:31:24;9.10;43.30
75091;DHT22;63674;48.048;8.306;2023-04-06T15:34:04;9.00;42.70
75091;DHT22;63674;48.048;8.306;2023-04-06T15:36:35;9.00;43.70
75091;DHT22;63674;48.048;8.306;2023-04-06T15:39:04;9.00;42.70
75091;DHT22;63674;48.048;8.306;2023-04-06T15:41:35;8.90;42.50
75091;DHT22;63674;48.048;8.306;2023-04-06T15:44:04;8.90;42.90
75091;DHT22;63674;48.048;8.306;2023-04-06T15:46:34;8.80;44.10
75091;DHT22;63674;48.048;8.306;2023-04-06T15:49:03;8.80;44.80
75091;DHT22;63674;48.048;8.306;2023-04-06T15:51:31;8.80;44.70
75091;DHT22;63674;48.048;8.306;2023-04-06T15:54:00;9.50;44.20